Time;durP1;ratioP1;P1;durP2;ratioP2;P2;SDS_P1;SDS_P2;PMS_P1;PMS_P2;Temp;Humidity;BMP_temperature;BMP_pressure;BME280_temperature;BME280_humidity;BME280_pressure;Samples;Min_cycle;Max_cycle;Signal;HPM_P1;HPM_P2
2021/07/14 00:06:13;;;;;;;6.57;1.58;;;17.50;99.90;;;;;;6678629;88;20264;-75
2021/07/14 00:26:33;;;;;;;2.50;1.15;;;17.50;99.90;;;;;;6684315;88;20490;-75
2021/07/14 00:36:34;;;;;;;4.20;1.45;;;17.50;99.90;;;;;;6681952;88;20237;-75
2021/07/14 00:46:35;;;;;;;3.67;1.60;;;17.30;99.90;;;;;;6682397;88;20191;-75
2021/07/14 00:56:36;;;;;;;6.12;1.90;;;17.30;99.90;;;;;;6681931;88;20619;-74
2021/07/14 01:07:06;;;;;;;4.47;1.80;;;17.30;99.90;;;;;;6681325;88;20188;-76
2021/07/14 01:17:11;;;;;;;4.37;1.60;;;17.30;99.90;;;;;;6684722;88;20259;-74
2021/07/14 01:27:15;;;;;;;3.20;1.80;;;17.20;99.90;;;;;;6681125;88;20203;-75
2021/07/14 01:37:20;;;;;;;4.83;1.53;;;17.30;99.90;;;;;;6680226;88;20303;-75
2021/07/14 01:47:22;;;;;;;;;;;17.30;99.90;;;;;;6681125;88;20179;-74
2021/07/14 01:57:26;;;;;;;5.03;1.60;;;17.30;99.90;;;;;;6680993;88;20059;-75
2021/07/14 02:07:28;;;;;;;6.87;2.03;;;17.20;99.90;;;;;;6681077;88;20194;-74
2021/07/14 02:17:33;;;;;;;5.72;2.10;;;17.10;99.90;;;;;;6678132;88;20228;-75
2021/07/14 02:27:34;;;;;;;;;;;17.10;99.90;;;;;;6680130;88;20701;-75
2021/07/14 02:37:43;;;;;;;8.40;1.92;;;17.10;99.90;;;;;;6679576;88;20062;-75
2021/07/14 02:47:44;;;;;;;9.50;1.80;;;17.00;99.90;;;;;;6663446;88;20266;-75
2021/07/14 02:57:50;;;;;;;3.50;1.85;;;17.00;99.90;;;;;;6678149;88;20330;-75
2021/07/14 03:07:52;;;;;;;3.70;1.77;;;17.00;99.90;;;;;;6678867;88;20190;-75
2021/07/14 03:17:54;;;;;;;11.35;2.00;;;17.10;99.90;;;;;;6678422;88;20768;-74
2021/07/14 03:27:55;;;;;;;4.05;1.90;;;17.00;99.90;;;;;;6678903;88;20612;-75
2021/07/14 03:37:57;;;;;;;3.40;1.50;;;17.00;99.90;;;;;;6679156;88;20283;-74
2021/07/14 03:47:59;;;;;;;7.55;1.70;;;17.00;99.90;;;;;;6680522;88;20684;-73
2021/07/14 03:58:00;;;;;;;6.50;1.92;;;17.10;99.90;;;;;;6681403;88;20215;-74
2021/07/14 04:08:01;;;;;;;8.30;1.87;;;17.20;99.90;;;;;;6685924;88;20230;-75
2021/07/14 04:18:02;;;;;;;6.65;1.85;;;17.10;99.90;;;;;;6678034;88;20523;-75
2021/07/14 04:28:03;;;;;;;3.33;1.80;;;17.10;99.90;;;;;;6678465;88;20175;-76
2021/07/14 04:38:04;;;;;;;6.35;1.83;;;17.10;99.90;;;;;;6678019;88;20190;-76
2021/07/14 04:48:05;;;;;;;6.05;2.42;;;17.20;99.90;;;;;;6679075;88;20182;-75
2021/07/14 04:58:06;;;;;;;8.02;2.22;;;17.20;99.90;;;;;;6672188;88;20286;-76
2021/07/14 05:08:07;;;;;;;7.10;2.20;;;17.20;99.90;;;;;;6678126;88;20772;-76
2021/07/14 05:18:07;;;;;;;8.70;2.37;;;17.20;99.90;;;;;;6678955;88;20182;-75
2021/07/14 05:28:08;;;;;;;10.10;2.35;;;17.30;99.90;;;;;;6679512;88;20559;-76
2021/07/14 05:38:08;;;;;;;6.18;2.30;;;17.30;99.90;;;;;;6680123;88;20924;-76
2021/07/14 05:48:17;;;;;;;6.10;2.30;;;17.40;99.90;;;;;;6663127;88;20216;-77
2021/07/14 05:58:21;;;;;;;8.63;2.75;;;17.20;99.90;;;;;;6680457;88;20546;-77
2021/07/14 06:08:28;;;;;;;7.18;2.60;;;17.30;99.90;;;;;;6680379;88;20795;-76
2021/07/14 06:18:35;;;;;;;7.10;2.80;;;17.30;99.90;;;;;;6678934;88;20909;-73
2021/07/14 06:28:35;;;;;;;8.38;3.55;;;17.40;99.90;;;;;;6685474;88;20190;-77
2021/07/14 06:38:36;;;;;;;6.57;3.75;;;17.30;99.90;;;;;;6686632;88;20750;-76
2021/07/14 06:48:38;;;;;;;9.48;4.43;;;17.30;99.90;;;;;;6686513;88;20186;-75
2021/07/14 06:58:39;;;;;;;5.97;4.40;;;17.40;99.90;;;;;;6682549;88;20350;-77
2021/07/14 07:08:40;;;;;;;11.52;5.10;;;17.50;99.90;;;;;;6682752;88;20179;-77
2021/07/14 07:18:41;;;;;;;7.95;3.90;;;17.50;99.90;;;;;;6684808;88;20186;-76
2021/07/14 07:28:42;;;;;;;6.25;3.75;;;17.60;99.90;;;;;;6687372;88;20261;-77
2021/07/14 07:38:43;;;;;;;8.60;3.87;;;17.70;99.90;;;;;;6689348;88;20567;-77
2021/07/14 07:48:43;;;;;;;12.37;4.60;;;17.80;99.90;;;;;;6687414;88;20299;-77
2021/07/14 07:58:44;;;;;;;9.63;4.70;;;17.90;99.90;;;;;;6682622;88;20314;-76
2021/07/14 08:08:45;;;;;;;13.05;5.53;;;17.90;99.90;;;;;;6681185;88;20246;-78
2021/07/14 08:18:45;;;;;;;7.47;4.20;;;18.00;99.90;;;;;;6681762;88;20231;-76
2021/07/14 08:28:47;;;;;;;6.00;3.85;;;18.10;99.90;;;;;;6687127;78;20221;-75
2021/07/14 08:38:48;;;;;;;9.80;4.68;;;18.20;99.90;;;;;;6693199;88;20191;-76
2021/07/14 08:48:49;;;;;;;11.95;4.62;;;18.40;99.90;;;;;;6695305;88;20341;-76
2021/07/14 08:58:51;;;;;;;5.93;4.18;;;18.30;99.90;;;;;;6700432;88;20663;-76
2021/07/14 09:08:51;;;;;;;8.10;4.50;;;18.30;99.90;;;;;;6700364;88;20189;-76
2021/07/14 09:19:13;;;;;;;8.00;4.40;;;18.30;99.90;;;;;;6701205;88;20199;-76
2021/07/14 09:29:13;;;;;;;10.38;5.93;;;18.30;99.90;;;;;;6699900;88;20612;-76
2021/07/14 09:39:14;;;;;;;7.65;4.85;;;18.30;99.90;;;;;;6693123;88;20207;-75
2021/07/14 09:49:15;;;;;;;8.35;4.40;;;18.30;99.90;;;;;;6692393;88;20250;-75
2021/07/14 09:59:19;;;;;;;5.72;3.55;;;18.30;99.90;;;;;;6696648;88;20622;-76
2021/07/14 10:09:24;;;;;;;5.07;2.28;;;18.30;99.90;;;;;;6699602;88;20292;-77
2021/07/14 10:19:27;;;;;;;3.83;1.90;;;18.30;99.90;;;;;;6701297;88;20194;-77
2021/07/14 10:29:29;;;;;;;2.22;1.73;;;18.10;99.90;;;;;;6699915;88;20202;-77
2021/07/14 10:39:31;;;;;;;3.00;2.20;;;18.10;99.90;;;;;;6702673;88;20707;-76
2021/07/14 10:49:32;;;;;;;3.35;2.40;;;18.30;99.90;;;;;;6697815;88;20228;-77
2021/07/14 10:59:33;;;;;;;6.28;3.00;;;18.30;99.90;;;;;;6703498;88;20197;-77
2021/07/14 11:09:35;;;;;;;3.63;2.43;;;18.40;99.90;;;;;;6705459;88;20622;-77
2021/07/14 11:19:47;;;;;;;3.62;2.20;;;18.50;99.90;;;;;;6710558;88;20530;-77
2021/07/14 11:29:49;;;;;;;4.82;2.20;;;18.40;99.90;;;;;;6708515;88;20283;-77
2021/07/14 11:39:49;;;;;;;3.80;1.80;;;18.30;99.90;;;;;;6709144;88;20182;-77
2021/07/14 11:49:50;;;;;;;2.72;1.70;;;18.30;99.90;;;;;;6708301;88;20223;-78
2021/07/14 12:00:08;;;;;;;5.07;2.00;;;18.30;99.90;;;;;;6708112;88;20312;-77
2021/07/14 12:10:17;;;;;;;3.80;2.33;;;18.30;99.90;;;;;;6704716;88;20226;-77
2021/07/14 12:20:17;;;;;;;6.05;2.67;;;18.40;99.90;;;;;;6701162;88;20194;-76
2021/07/14 12:30:23;;;;;;;4.60;2.30;;;18.30;99.90;;;;;;6714257;88;20198;-77
2021/07/14 12:40:35;;;;;;;3.80;1.98;;;18.30;99.90;;;;;;6711446;88;20196;-76
2021/07/14 12:50:39;;;;;;;5.00;1.90;;;18.30;99.90;;;;;;6714271;88;20277;-76
2021/07/14 13:00:41;;;;;;;7.05;1.77;;;18.10;99.90;;;;;;6701208;88;20263;-77
2021/07/14 13:10:43;;;;;;;3.30;1.50;;;17.80;99.90;;;;;;6696308;88;20318;-75
2021/07/14 13:20:49;;;;;;;4.35;1.40;;;17.60;99.90;;;;;;6698963;88;20210;-76
2021/07/14 13:31:07;;;;;;;4.80;1.55;;;17.60;99.90;;;;;;6696712;88;20253;-75
2021/07/14 13:41:16;;;;;;;2.85;1.10;;;17.70;99.90;;;;;;6697618;88;20194;-77
2021/07/14 13:51:42;;;;;;;2.60;0.65;;;17.80;99.90;;;;;;6694152;88;20977;-77
2021/07/14 14:02:01;;;;;;;1.95;0.90;;;17.70;99.90;;;;;;6695379;88;20246;-77
2021/07/14 14:12:14;;;;;;;3.80;1.20;;;17.80;99.90;;;;;;6694326;88;20645;-76
2021/07/14 14:22:19;;;;;;;5.12;1.30;;;17.60;99.90;;;;;;6704790;77;20212;-75
2021/07/14 14:32:20;;;;;;;2.83;1.30;;;17.40;99.90;;;;;;6706852;88;20202;-76
2021/07/14 14:42:20;;;;;;;2.85;1.20;;;17.60;99.90;;;;;;6703875;88;20266;-75
2021/07/14 14:52:21;;;;;;;4.62;1.05;;;17.90;99.90;;;;;;6709001;88;20178;-77
2021/07/14 15:02:21;;;;;;;1.45;0.82;;;17.90;99.90;;;;;;6696656;88;20683;-77
2021/07/14 15:12:22;;;;;;;2.00;0.80;;;17.90;99.90;;;;;;6698712;88;20209;-76
2021/07/14 15:22:22;;;;;;;1.85;1.02;;;18.00;99.90;;;;;;6707437;88;20197;-79
2021/07/14 15:32:23;;;;;;;3.30;1.20;;;18.00;99.90;;;;;;6718790;88;20947;-76
2021/07/14 15:42:23;;;;;;;3.42;1.00;;;17.90;99.90;;;;;;6677758;88;20210;-78
2021/07/14 15:52:24;;;;;;;5.87;1.10;;;17.80;99.90;;;;;;6709240;88;20667;-77
2021/07/14 16:02:25;;;;;;;1.58;0.57;;;17.50;99.90;;;;;;6714357;88;20326;-79
2021/07/14 16:12:25;;;;;;;2.33;0.40;;;17.40;99.90;;;;;;6706156;88;20189;-77
2021/07/14 16:22:29;;;;;;;1.48;0.45;;;17.50;99.90;;;;;;6674395;88;20530;-77
2021/07/14 16:32:30;;;;;;;1.80;0.40;;;17.40;99.90;;;;;;6705399;88;20821;-78
2021/07/14 16:42:30;;;;;;;0.85;0.30;;;17.50;99.90;;;;;;6701076;88;20186;-80
2021/07/14 16:52:31;;;;;;;2.95;0.40;;;17.40;99.90;;;;;;6725728;88;20190;-80
2021/07/14 17:02:32;;;;;;;1.50;0.30;;;17.40;99.90;;;;;;6719660;88;20228;-76
2021/07/14 17:12:33;;;;;;;1.10;0.40;;;17.40;99.90;;;;;;6717270;88;20309;-78
2021/07/14 17:22:34;;;;;;;5.05;0.50;;;17.30;99.90;;;;;;6717541;88;20532;-76
2021/07/14 17:32:34;;;;;;;4.35;0.30;;;17.30;99.90;;;;;;6702071;88;20193;-77
2021/07/14 17:42:35;;;;;;;0.93;0.40;;;17.30;99.90;;;;;;6702054;88;20994;-77
2021/07/14 17:52:36;;;;;;;1.10;0.47;;;17.30;99.90;;;;;;6704390;88;20216;-76
2021/07/14 18:02:37;;;;;;;0.80;0.43;;;17.40;99.90;;;;;;6704046;88;20218;-77
2021/07/14 18:12:40;;;;;;;0.90;0.30;;;17.50;99.90;;;;;;6695115;88;20298;-77
2021/07/14 18:22:42;;;;;;;1.17;0.30;;;17.60;99.90;;;;;;6699187;88;20584;-77
2021/07/14 18:32:43;;;;;;;1.23;0.20;;;17.50;99.90;;;;;;6705578;88;20877;-77
2021/07/14 18:42:43;;;;;;;3.25;0.60;;;17.40;99.90;;;;;;6710697;88;20213;-77
2021/07/14 18:52:45;;;;;;;1.53;0.80;;;17.30;99.90;;;;;;6717286;88;20191;-77
2021/07/14 19:02:45;;;;;;;1.48;0.50;;;17.40;99.90;;;;;;6711153;88;20230;-77
2021/07/14 19:12:46;;;;;;;1.17;0.50;;;17.20;99.90;;;;;;6702331;88;20336;-76
2021/07/14 19:22:47;;;;;;;1.02;0.40;;;17.00;99.90;;;;;;6714785;88;20298;-77
2021/07/14 19:32:48;;;;;;;1.12;0.50;;;17.10;99.90;;;;;;6712655;88;20227;-75
2021/07/14 19:42:50;;;;;;;2.47;1.40;;;17.10;99.90;;;;;;6716197;88;20765;-77
2021/07/14 19:52:51;;;;;;;1.50;0.60;;;17.00;99.90;;;;;;6714873;88;20193;-76
2021/07/14 20:02:51;;;;;;;1.10;0.47;;;17.20;99.90;;;;;;6716308;88;20216;-76
2021/07/14 20:12:52;;;;;;;3.03;1.02;;;17.20;99.90;;;;;;6717293;88;20215;-78
2021/07/14 20:22:52;;;;;;;1.20;0.60;;;17.20;99.90;;;;;;6718935;88;20660;-76
2021/07/14 20:32:53;;;;;;;2.20;0.50;;;17.20;99.90;;;;;;6702753;88;20214;-76
2021/07/14 20:42:54;;;;;;;1.60;0.60;;;17.10;99.90;;;;;;6697444;88;20200;-76
2021/07/14 20:52:54;;;;;;;3.08;0.50;;;17.20;99.90;;;;;;6698772;88;20277;-76
2021/07/14 21:02:55;;;;;;;4.40;0.70;;;17.10;99.90;;;;;;6701500;88;20236;-76
2021/07/14 21:12:56;;;;;;;4.60;0.90;;;17.10;99.90;;;;;;6707884;88;20209;-76
2021/07/14 21:22:56;;;;;;;3.72;1.15;;;17.20;99.90;;;;;;6699635;88;20558;-76
2021/07/14 21:32:57;;;;;;;2.08;1.10;;;17.10;99.90;;;;;;6698405;88;20224;-76
2021/07/14 21:42:57;;;;;;;4.68;1.37;;;17.10;99.90;;;;;;6705140;88;20212;-76
2021/07/14 21:52:59;;;;;;;2.13;1.00;;;17.10;99.90;;;;;;6705063;88;20204;-77
2021/07/14 22:03:01;;;;;;;2.03;1.20;;;17.20;99.90;;;;;;6703376;88;20682;-77
2021/07/14 22:13:02;;;;;;;4.32;1.30;;;17.20;99.90;;;;;;6705186;88;20194;-77
2021/07/14 22:23:17;;;;;;;2.00;1.25;;;17.10;99.90;;;;;;6702580;88;20204;-77
2021/07/14 22:33:19;;;;;;;2.08;1.30;;;17.00;99.90;;;;;;6721678;88;20243;-76
2021/07/14 22:43:23;;;;;;;2.65;1.90;;;16.90;99.90;;;;;;6721530;88;20199;-77
2021/07/14 22:53:24;;;;;;;3.40;1.80;;;16.80;99.90;;;;;;6727026;88;20289;-78
2021/07/14 23:03:25;;;;;;;4.32;2.10;;;16.90;99.90;;;;;;6725018;88;20293;-78
2021/07/14 23:13:26;;;;;;;3.95;1.83;;;16.80;99.90;;;;;;6726891;88;20218;-77
2021/07/14 23:23:29;;;;;;;4.78;2.00;;;16.50;99.90;;;;;;6724095;88;20247;-78
2021/07/14 23:33:30;;;;;;;3.47;1.92;;;16.70;99.90;;;;;;6722444;88;20588;-77
2021/07/14 23:43:30;;;;;;;3.42;1.92;;;16.50;99.90;;;;;;6722213;88;20215;-77
2021/07/14 23:53:31;;;;;;;2.70;2.30;;;16.60;99.90;;;;;;6715087;88;20211;-76
